Time;durP1;ratioP1;P1;durP2;ratioP2;P2;SDS_P1;SDS_P2;PMS_P1;PMS_P2;Temp;Humidity;BMP_temperature;BMP_pressure;BME280_temperature;BME280_humidity;BME280_pressure;Samples;Min_cycle;Max_cycle;Signal;HPM_P1;HPM_P2
2021/05/31 00:00:16;;;;;;;3.57;2.03;;;12.10;78.40;;;;;;5051330;28;20209;-57
2021/05/31 00:02:44;;;;;;;2.47;2.07;;;12.10;78.40;;;;;;5051374;28;20285;-57
2021/05/31 00:05:11;;;;;;;6.27;2.70;;;12.00;78.40;;;;;;5051129;28;20240;-57
2021/05/31 00:07:37;;;;;;;4.03;2.90;;;12.00;78.40;;;;;;5051182;28;20654;-57
2021/05/31 00:10:06;;;;;;;2.97;2.07;;;12.00;78.30;;;;;;5051573;28;20213;-57
2021/05/31 00:12:32;;;;;;;3.40;2.40;;;11.90;77.60;;;;;;5051148;28;20212;-58
2021/05/31 00:14:58;;;;;;;4.33;2.20;;;11.90;77.60;;;;;;5050855;28;20221;-57
2021/05/31 00:17:26;;;;;;;3.30;1.87;;;11.90;78.20;;;;;;5051239;28;20609;-57
2021/05/31 00:19:53;;;;;;;2.20;1.90;;;11.90;78.20;;;;;;5051015;28;20201;-57
2021/05/31 00:22:21;;;;;;;2.73;1.87;;;11.90;78.20;;;;;;5051122;28;20205;-58
2021/05/31 00:24:47;;;;;;;6.70;1.90;;;11.80;77.90;;;;;;5050811;28;20244;-57
2021/05/31 00:27:15;;;;;;;2.73;2.10;;;11.80;78.10;;;;;;5050845;28;20201;-57
2021/05/31 00:29:42;;;;;;;6.23;2.10;;;11.90;78.20;;;;;;5051074;28;20218;-57
2021/05/31 00:32:08;;;;;;;3.00;1.90;;;11.80;78.10;;;;;;5051114;28;20263;-57
2021/05/31 00:34:35;;;;;;;4.17;2.60;;;11.80;77.70;;;;;;5050787;28;20226;-57
2021/05/31 00:37:01;;;;;;;5.27;2.10;;;11.90;77.50;;;;;;5050818;28;20205;-58
2021/05/31 00:39:28;;;;;;;2.70;2.00;;;11.90;77.60;;;;;;5050733;28;20209;-57
2021/05/31 00:41:54;;;;;;;3.27;2.00;;;11.90;78.20;;;;;;5050754;28;20208;-57
2021/05/31 00:44:22;;;;;;;2.83;2.10;;;11.80;78.10;;;;;;5050606;28;20452;-58
2021/05/31 00:46:50;;;;;;;3.47;1.90;;;11.80;78.10;;;;;;5050976;28;20248;-57
2021/05/31 00:49:18;;;;;;;3.53;1.90;;;11.80;78.10;;;;;;5050715;28;20666;-57
2021/05/31 00:51:44;;;;;;;2.90;1.80;;;11.70;78.00;;;;;;5050820;28;20210;-57
2021/05/31 00:54:10;;;;;;;2.00;1.70;;;11.70;77.60;;;;;;5050503;28;20647;-57
2021/05/31 00:56:38;;;;;;;2.50;1.80;;;11.60;77.80;;;;;;5051036;28;20593;-57
2021/05/31 00:59:04;;;;;;;4.43;2.10;;;11.60;77.90;;;;;;5054586;28;20211;-57
2021/05/31 01:01:31;;;;;;;1.90;1.70;;;11.50;78.10;;;;;;5054580;28;20209;-57
2021/05/31 01:03:57;;;;;;;2.63;2.10;;;11.50;78.60;;;;;;5054426;28;20232;-57
2021/05/31 01:06:30;;;;;;;3.47;1.90;;;11.50;78.80;;;;;;5054587;28;20202;-57
2021/05/31 01:09:02;;;;;;;4.93;2.10;;;11.50;79.10;;;;;;5054281;28;20216;-58
2021/05/31 01:11:32;;;;;;;2.10;1.80;;;11.40;79.10;;;;;;5054463;28;20692;-57
2021/05/31 01:14:07;;;;;;;2.77;1.80;;;11.40;79.10;;;;;;5054388;28;20613;-57
2021/05/31 01:16:40;;;;;;;3.43;2.07;;;11.50;79.10;;;;;;5054517;28;20212;-57
2021/05/31 01:19:14;;;;;;;3.10;1.90;;;11.40;79.10;;;;;;5054388;28;20202;-57
2021/05/31 01:21:56;;;;;;;3.30;1.87;;;11.40;79.30;;;;;;5054263;28;20213;-57
2021/05/31 01:24:35;;;;;;;5.17;2.00;;;11.40;79.30;;;;;;5053862;28;20234;-57
2021/05/31 01:27:11;;;;;;;2.73;2.00;;;11.30;79.70;;;;;;5054254;28;20213;-58
2021/05/31 01:29:43;;;;;;;6.10;1.90;;;11.30;80.40;;;;;;5054307;28;20209;-58
2021/05/31 01:32:12;;;;;;;5.00;2.10;;;11.30;79.70;;;;;;5053908;28;20213;-58
2021/05/31 01:34:41;;;;;;;3.50;1.90;;;11.30;79.90;;;;;;5054095;28;20226;-58
2021/05/31 01:37:12;;;;;;;3.60;1.93;;;11.20;79.90;;;;;;5054167;28;20210;-58
2021/05/31 01:39:40;;;;;;;3.73;1.90;;;11.20;80.20;;;;;;5054039;28;20221;-58
2021/05/31 01:42:07;;;;;;;3.43;2.10;;;11.10;80.80;;;;;;5054116;28;20208;-58
2021/05/31 01:44:34;;;;;;;3.03;1.73;;;11.10;81.30;;;;;;5053538;28;20256;-58
2021/05/31 01:47:02;;;;;;;2.23;1.90;;;10.90;81.60;;;;;;5054114;28;20216;-58
2021/05/31 01:49:29;;;;;;;4.30;2.20;;;10.90;82.10;;;;;;5053676;28;20697;-58
2021/05/31 01:51:55;;;;;;;2.93;2.00;;;10.90;82.70;;;;;;5053855;28;20201;-58
2021/05/31 01:54:22;;;;;;;2.77;1.70;;;10.80;82.60;;;;;;5053412;28;20225;-57
2021/05/31 01:56:51;;;;;;;2.90;1.90;;;10.80;83.60;;;;;;5053574;28;20216;-58
2021/05/31 01:59:18;;;;;;;2.67;1.70;;;10.80;83.90;;;;;;5053635;28;20213;-58
2021/05/31 02:01:46;;;;;;;2.70;1.83;;;10.80;84.00;;;;;;5053436;28;20716;-58
2021/05/31 02:04:16;;;;;;;3.37;2.17;;;10.80;84.10;;;;;;5053331;28;20232;-58
2021/05/31 02:06:42;;;;;;;2.10;1.80;;;10.70;84.20;;;;;;5053723;28;20212;-58
2021/05/31 02:09:08;;;;;;;2.43;2.07;;;10.70;84.50;;;;;;5052601;28;20670;-58
2021/05/31 02:11:40;;;;;;;1.90;1.67;;;10.70;84.90;;;;;;5053301;28;20209;-58
2021/05/31 02:14:13;;;;;;;2.57;1.83;;;10.60;85.10;;;;;;5053230;28;20225;-57
2021/05/31 02:16:45;;;;;;;3.27;1.97;;;10.60;85.10;;;;;;5053458;28;20210;-58
2021/05/31 02:19:15;;;;;;;2.83;1.80;;;10.60;85.60;;;;;;5053402;28;20205;-57
2021/05/31 02:21:42;;;;;;;3.40;2.10;;;10.60;85.80;;;;;;5053905;28;20259;-58
2021/05/31 02:24:10;;;;;;;3.40;2.00;;;10.60;86.00;;;;;;5052732;28;20225;-58
2021/05/31 02:26:37;;;;;;;4.17;2.00;;;10.60;86.20;;;;;;5052936;28;20892;-58
2021/05/31 02:29:04;;;;;;;2.47;2.00;;;10.50;86.60;;;;;;5053184;28;20205;-57
2021/05/31 02:31:31;;;;;;;2.63;2.00;;;10.50;87.50;;;;;;5052992;28;20210;-58
2021/05/31 02:33:58;;;;;;;4.03;2.10;;;10.40;88.00;;;;;;5052777;28;20217;-58
2021/05/31 02:36:26;;;;;;;2.30;1.53;;;10.30;88.50;;;;;;5052956;28;20212;-57
2021/05/31 02:38:52;;;;;;;3.20;2.30;;;10.30;88.50;;;;;;5052838;28;20205;-58
2021/05/31 02:41:18;;;;;;;2.80;1.97;;;10.30;88.70;;;;;;5053039;28;20201;-58
2021/05/31 02:43:44;;;;;;;3.70;2.03;;;10.40;89.00;;;;;;5052592;28;20241;-58
2021/05/31 02:46:10;;;;;;;3.03;2.07;;;10.30;89.40;;;;;;5052754;28;20213;-58
2021/05/31 02:48:37;;;;;;;2.50;2.00;;;10.20;90.00;;;;;;5052675;28;20214;-57
2021/05/31 02:51:03;;;;;;;3.27;1.90;;;10.20;90.10;;;;;;5052617;28;20271;-58
2021/05/31 02:53:32;;;;;;;5.20;2.03;;;10.20;90.20;;;;;;5052545;28;20234;-58
2021/05/31 02:55:59;;;;;;;3.10;2.07;;;10.20;90.50;;;;;;5052736;28;20228;-59
2021/05/31 02:58:25;;;;;;;3.83;2.00;;;10.10;90.70;;;;;;5052787;28;20206;-58
2021/05/31 03:00:51;;;;;;;3.87;1.90;;;10.00;91.00;;;;;;5052638;28;20206;-57
2021/05/31 03:03:18;;;;;;;2.73;1.90;;;10.00;91.60;;;;;;5052331;28;20726;-57
2021/05/31 03:05:44;;;;;;;4.70;2.07;;;9.90;92.00;;;;;;5052067;28;20228;-57
2021/05/31 03:08:10;;;;;;;5.23;2.10;;;10.00;91.60;;;;;;5052189;28;20709;-57
2021/05/31 03:10:38;;;;;;;4.10;1.97;;;9.90;92.20;;;;;;5052371;28;20212;-57
2021/05/31 03:13:05;;;;;;;2.73;1.77;;;9.90;92.30;;;;;;5052181;28;20216;-57
2021/05/31 03:15:32;;;;;;;4.47;2.07;;;9.90;92.50;;;;;;5052104;28;20210;-57
2021/05/31 03:17:58;;;;;;;3.33;1.93;;;9.90;92.80;;;;;;5052194;28;20702;-57
2021/05/31 03:20:27;;;;;;;2.10;1.90;;;9.80;93.00;;;;;;5050870;28;20206;-57
2021/05/31 03:22:53;;;;;;;2.17;1.97;;;9.80;93.20;;;;;;5052097;28;20205;-56
2021/05/31 03:25:20;;;;;;;2.67;1.93;;;9.80;93.30;;;;;;5051780;28;20234;-57
2021/05/31 03:27:48;;;;;;;2.97;2.17;;;9.80;93.40;;;;;;5052076;28;20210;-57
2021/05/31 03:30:16;;;;;;;4.47;2.20;;;9.80;93.40;;;;;;5051906;28;20206;-57
2021/05/31 03:32:42;;;;;;;3.67;2.10;;;9.80;93.60;;;;;;5051767;28;20202;-57
2021/05/31 03:35:11;;;;;;;2.90;2.03;;;9.80;93.70;;;;;;5051556;28;20771;-57
2021/05/31 03:37:37;;;;;;;2.20;2.00;;;9.90;93.80;;;;;;5051757;28;20208;-56
2021/05/31 03:40:05;;;;;;;3.47;2.00;;;9.90;93.90;;;;;;5051527;28;20678;-57
2021/05/31 03:42:31;;;;;;;2.80;2.20;;;9.90;94.10;;;;;;5051864;28;20747;-56
2021/05/31 03:44:59;;;;;;;4.03;2.30;;;9.80;94.20;;;;;;5051183;28;20229;-57
2021/05/31 03:47:26;;;;;;;3.90;2.10;;;9.80;94.40;;;;;;5051471;28;20228;-57
2021/05/31 03:49:52;;;;;;;2.73;2.20;;;9.80;94.60;;;;;;5051575;28;20640;-57
2021/05/31 03:52:18;;;;;;;4.23;2.30;;;9.80;94.80;;;;;;5051798;28;20210;-57
2021/05/31 03:54:44;;;;;;;3.23;2.20;;;9.70;95.20;;;;;;5051569;28;20573;-57
2021/05/31 03:57:10;;;;;;;3.30;2.03;;;9.70;95.40;;;;;;5053408;28;20583;-57
2021/05/31 03:59:37;;;;;;;3.83;2.37;;;9.60;95.70;;;;;;5053676;28;20217;-58
2021/05/31 04:02:04;;;;;;;2.93;2.30;;;9.70;95.80;;;;;;5053152;28;20213;-57
2021/05/31 04:04:40;;;;;;;2.47;2.17;;;9.70;95.90;;;;;;5053533;28;20233;-57
2021/05/31 04:12:37;;;;;;;2.90;2.30;;;9.80;95.80;;;;;;5052121;28;20582;-57
2021/05/31 04:15:04;;;;;;;9.53;5.40;;;9.90;95.70;;;;;;5051456;28;20222;-57
2021/05/31 04:17:32;;;;;;;2.67;2.13;;;10.00;95.20;;;;;;5051786;28;20697;-57
2021/05/31 04:19:58;;;;;;;3.67;2.37;;;10.10;95.10;;;;;;5051472;28;20205;-57
2021/05/31 04:22:24;;;;;;;4.13;2.43;;;10.20;95.00;;;;;;5051070;28;20686;-57
2021/05/31 04:24:50;;;;;;;4.40;2.50;;;10.30;95.00;;;;;;5051247;28;20423;-57
2021/05/31 04:27:17;;;;;;;2.43;1.87;;;10.40;94.80;;;;;;5050891;28;20575;-57
2021/05/31 04:29:43;;;;;;;2.40;2.20;;;10.40;94.70;;;;;;5050881;28;20618;-57
2021/05/31 04:32:09;;;;;;;3.63;2.10;;;10.50;94.60;;;;;;5050811;28;20255;-57
2021/05/31 04:34:37;;;;;;;3.27;2.10;;;10.60;94.40;;;;;;5050631;28;20304;-57
2021/05/31 04:37:04;;;;;;;2.80;2.00;;;10.70;94.10;;;;;;5050839;28;20209;-57
2021/05/31 04:39:30;;;;;;;3.73;2.13;;;10.80;93.80;;;;;;5050635;28;20205;-57
2021/05/31 04:41:56;;;;;;;3.57;2.20;;;10.90;93.80;;;;;;5051130;28;20266;-57
2021/05/31 04:44:22;;;;;;;3.17;2.10;;;11.10;93.40;;;;;;5050329;28;20229;-57
2021/05/31 04:46:49;;;;;;;4.33;2.47;;;11.20;93.10;;;;;;5050889;28;20205;-57
2021/05/31 04:49:15;;;;;;;3.93;2.13;;;11.20;92.90;;;;;;5050621;28;20698;-56
2021/05/31 04:51:43;;;;;;;3.03;2.00;;;11.40;92.90;;;;;;5050815;28;20216;-56
2021/05/31 04:54:09;;;;;;;2.83;2.53;;;11.50;92.60;;;;;;5050345;28;20232;-57
2021/05/31 04:56:36;;;;;;;3.20;2.30;;;11.70;92.30;;;;;;5051160;28;20220;-57
2021/05/31 04:59:02;;;;;;;2.87;2.33;;;11.90;91.80;;;;;;5050716;28;20252;-57
2021/05/31 05:01:28;;;;;;;3.00;2.23;;;12.30;91.70;;;;;;5050653;28;20205;-57
2021/05/31 05:03:54;;;;;;;3.53;2.13;;;12.70;90.50;;;;;;5050358;28;20279;-57
2021/05/31 05:06:20;;;;;;;3.27;2.10;;;13.10;89.80;;;;;;5050606;28;20787;-57
2021/05/31 05:08:50;;;;;;;4.00;2.00;;;13.40;87.90;;;;;;5050242;28;20209;-57
2021/05/31 05:11:17;;;;;;;3.53;2.97;;;13.90;86.20;;;;;;5050610;28;20224;-58
2021/05/31 05:13:43;;;;;;;4.10;1.90;;;15.30;84.30;;;;;;5050248;28;20225;-58
2021/05/31 05:16:09;;;;;;;3.27;1.87;;;17.50;77.70;;;;;;5050404;28;20210;-58
2021/05/31 05:18:42;;;;;;;2.50;2.07;;;19.80;68.70;;;;;;5050452;28;20228;-58
2021/05/31 05:21:08;;;;;;;2.55;1.70;;;21.90;61.30;;;;;;5050440;28;20627;-58
2021/05/31 05:23:35;;;;;;;2.60;1.90;;;23.70;55.50;;;;;;5050573;28;20226;-59
2021/05/31 05:26:02;;;;;;;2.38;1.60;;;24.90;52.90;;;;;;5050408;28;20740;-58
2021/05/31 05:28:28;;;;;;;7.03;1.70;;;25.10;50.20;;;;;;5050460;28;20612;-59
2021/05/31 05:30:54;;;;;;;2.17;1.70;;;24.60;50.30;;;;;;5050405;28;20212;-58
2021/05/31 05:33:21;;;;;;;3.83;2.10;;;24.20;51.20;;;;;;5050188;28;20226;-58
2021/05/31 05:35:52;;;;;;;2.33;1.90;;;24.60;49.90;;;;;;5050151;28;20210;-59
2021/05/31 05:38:37;;;;;;;3.08;1.95;;;25.70;47.80;;;;;;5050848;28;20212;-58
2021/05/31 05:43:53;;;;;;;3.42;1.88;;;28.20;44.40;;;;;;5073935;22;20275;-62
2021/05/31 05:49:05;;;;;;;5.22;1.85;;;31.00;39.60;;;;;;5069780;28;20219;-61
2021/05/31 05:51:32;;;;;;;2.63;1.80;;;31.70;37.80;;;;;;5074989;28;20204;-59
2021/05/31 05:53:59;;;;;;;2.05;1.60;;;32.00;37.10;;;;;;5073926;28;20425;-59
2021/05/31 05:56:27;;;;;;;2.05;1.73;;;32.60;36.20;;;;;;5074086;28;20201;-59
2021/05/31 05:58:54;;;;;;;1.73;1.42;;;33.40;35.30;;;;;;5074059;28;20216;-60
2021/05/31 06:01:21;;;;;;;2.38;1.60;;;34.10;34.50;;;;;;5074189;28;20253;-60
2021/05/31 06:03:51;;;;;;;1.92;1.65;;;34.70;33.50;;;;;;5073276;28;20225;-60
2021/05/31 06:06:17;;;;;;;2.13;1.75;;;35.20;33.10;;;;;;5073892;28;20231;-61
2021/05/31 06:08:43;;;;;;;3.17;1.77;;;35.30;32.50;;;;;;5073586;28;20201;-60
2021/05/31 06:11:09;;;;;;;2.13;1.58;;;35.60;32.40;;;;;;5073950;28;20346;-60
2021/05/31 06:13:39;;;;;;;2.28;1.58;;;35.80;32.10;;;;;;5073660;28;20358;-60
2021/05/31 06:16:06;;;;;;;2.30;1.73;;;36.30;31.70;;;;;;5073543;28;20288;-60
2021/05/31 06:18:32;;;;;;;3.47;1.73;;;36.10;31.40;;;;;;5073327;28;20211;-60
2021/05/31 06:20:59;;;;;;;2.25;1.80;;;36.00;31.50;;;;;;5073570;28;20215;-61
2021/05/31 06:23:26;;;;;;;3.78;2.10;;;36.30;31.70;;;;;;5073068;28;20689;-60
2021/05/31 06:25:52;;;;;;;3.72;2.22;;;36.70;31.20;;;;;;5073540;28;20233;-60
2021/05/31 06:28:19;;;;;;;2.50;2.08;;;36.20;31.60;;;;;;5073111;28;20233;-60
2021/05/31 06:30:46;;;;;;;4.72;1.60;;;33.80;34.50;;;;;;5073318;28;20209;-59
2021/05/31 06:33:13;;;;;;;2.90;2.00;;;33.40;34.20;;;;;;5073725;28;20212;-60
2021/05/31 06:35:40;;;;;;;2.72;1.80;;;32.80;35.40;;;;;;5073546;28;20228;-60
2021/05/31 06:38:06;;;;;;;3.67;1.65;;;32.30;36.20;;;;;;5074242;28;20212;-60
2021/05/31 06:40:33;;;;;;;3.15;1.77;;;33.30;34.60;;;;;;5074476;28;20295;-61
2021/05/31 06:42:59;;;;;;;1.90;1.67;;;34.40;33.20;;;;;;5074396;28;20223;-59
2021/05/31 06:45:28;;;;;;;5.65;2.10;;;35.40;32.30;;;;;;5073296;28;20232;-67
2021/05/31 06:48:00;;;;;;;1.85;1.38;;;36.20;31.60;;;;;;5073278;28;20234;-68
2021/05/31 06:50:28;;;;;;;4.07;1.63;;;36.80;30.70;;;;;;5073191;28;20669;-64
2021/05/31 06:52:54;;;;;;;3.55;2.08;;;36.90;29.70;;;;;;5073257;28;20208;-64
2021/05/31 06:55:22;;;;;;;2.78;1.58;;;36.90;30.60;;;;;;5072869;28;20232;-65
2021/05/31 06:57:50;;;;;;;2.85;1.50;;;36.90;29.90;;;;;;5072863;28;20220;-65
2021/05/31 07:00:19;;;;;;;1.60;1.17;;;36.30;30.00;;;;;;5073220;28;20212;-64
2021/05/31 07:02:45;;;;;;;6.03;1.65;;;35.30;31.10;;;;;;5072740;28;20216;-65
2021/05/31 07:05:13;;;;;;;3.00;1.30;;;34.70;31.50;;;;;;5072476;28;20225;-66
2021/05/31 07:07:40;;;;;;;1.83;1.30;;;34.30;31.60;;;;;;5072867;28;20208;-65
2021/05/31 07:10:08;;;;;;;3.53;1.35;;;34.00;31.70;;;;;;5072825;28;20209;-65
2021/05/31 07:12:34;;;;;;;1.98;1.33;;;34.50;31.10;;;;;;5072942;28;20209;-65
2021/05/31 07:15:04;;;;;;;1.65;1.30;;;35.20;30.00;;;;;;5072577;28;20225;-65
2021/05/31 07:17:32;;;;;;;2.13;1.25;;;35.60;28.90;;;;;;5072585;28;20255;-64
2021/05/31 07:19:58;;;;;;;2.22;1.58;;;35.60;29.10;;;;;;5073036;28;20205;-65
2021/05/31 07:22:26;;;;;;;1.77;1.27;;;35.00;29.70;;;;;;5073219;28;20207;-66
2021/05/31 07:24:53;;;;;;;2.90;1.20;;;34.40;28.70;;;;;;5072221;28;20320;-65
2021/05/31 07:27:20;;;;;;;1.40;1.25;;;33.80;29.70;;;;;;5072735;28;20209;-65
2021/05/31 07:29:46;;;;;;;3.33;1.85;;;33.50;30.30;;;;;;5071999;28;20213;-67
2021/05/31 07:32:13;;;;;;;2.00;1.27;;;33.20;30.90;;;;;;5071806;28;20584;-66
2021/05/31 07:34:39;;;;;;;1.90;1.50;;;33.00;31.00;;;;;;5071729;28;20225;-67
2021/05/31 07:37:06;;;;;;;2.50;1.40;;;32.50;31.60;;;;;;5072318;28;20205;-66
2021/05/31 07:39:33;;;;;;;2.03;1.40;;;32.30;31.40;;;;;;5072176;28;20205;-67
2021/05/31 07:42:00;;;;;;;2.35;1.55;;;32.30;31.20;;;;;;5071831;28;20228;-64
2021/05/31 07:44:26;;;;;;;1.83;1.50;;;32.40;31.30;;;;;;5071299;28;20232;-64
2021/05/31 07:46:52;;;;;;;3.60;1.20;;;32.80;31.10;;;;;;5071773;28;20213;-65
2021/05/31 07:49:19;;;;;;;1.90;1.20;;;32.90;30.80;;;;;;5071773;28;20278;-64
2021/05/31 07:51:47;;;;;;;2.28;1.40;;;32.80;31.10;;;;;;5071759;28;20213;-64
2021/05/31 07:54:14;;;;;;;2.40;1.33;;;32.90;29.70;;;;;;5071737;28;20228;-64
2021/05/31 07:56:42;;;;;;;4.25;1.33;;;32.30;29.90;;;;;;5071844;28;20587;-60
2021/05/31 07:59:08;;;;;;;1.95;1.50;;;32.10;29.90;;;;;;5071369;28;20216;-61
2021/05/31 08:01:35;;;;;;;1.85;1.50;;;32.10;29.90;;;;;;5071285;28;20209;-61
2021/05/31 08:04:03;;;;;;;1.40;1.27;;;32.70;29.60;;;;;;5071493;28;20224;-60
2021/05/31 08:06:29;;;;;;;3.15;1.40;;;32.50;29.50;;;;;;5070984;28;20254;-60
2021/05/31 08:08:56;;;;;;;1.92;1.25;;;32.40;29.50;;;;;;5071409;28;20215;-60
2021/05/31 08:11:22;;;;;;;3.15;1.48;;;32.30;29.40;;;;;;5071357;28;20558;-60
2021/05/31 08:13:50;;;;;;;1.95;1.38;;;32.60;29.50;;;;;;5071028;28;20252;-60
2021/05/31 08:16:17;;;;;;;2.22;1.58;;;32.80;29.60;;;;;;5071006;28;20213;-60
2021/05/31 08:18:43;;;;;;;2.22;1.52;;;33.40;29.60;;;;;;5071148;28;20383;-60
2021/05/31 08:21:10;;;;;;;2.97;1.60;;;33.60;29.40;;;;;;5071210;28;20239;-60
2021/05/31 08:23:36;;;;;;;2.72;1.25;;;33.30;29.00;;;;;;5070846;28;20212;-60
2021/05/31 08:26:03;;;;;;;2.97;1.55;;;33.00;29.20;;;;;;5070868;28;20243;-60
2021/05/31 08:28:29;;;;;;;3.03;1.52;;;32.80;29.70;;;;;;5070624;28;20673;-61
2021/05/31 08:30:57;;;;;;;2.15;1.30;;;32.50;30.00;;;;;;5070996;28;20209;-61
2021/05/31 08:33:23;;;;;;;1.88;1.40;;;32.70;29.60;;;;;;5070902;28;20266;-59
2021/05/31 08:35:50;;;;;;;3.00;1.30;;;32.60;29.80;;;;;;5070705;28;20225;-61
2021/05/31 08:38:16;;;;;;;1.95;1.60;;;32.30;30.70;;;;;;5070618;28;20527;-60
2021/05/31 08:40:43;;;;;;;1.73;1.40;;;32.40;30.10;;;;;;5070668;28;20204;-60
2021/05/31 08:43:09;;;;;;;2.35;1.50;;;32.00;31.00;;;;;;5070511;28;20699;-60
2021/05/31 08:45:37;;;;;;;1.75;1.30;;;30.90;32.00;;;;;;5070396;28;20229;-60
2021/05/31 08:48:09;;;;;;;2.25;1.42;;;29.80;32.30;;;;;;5070736;28;20240;-60
2021/05/31 08:50:35;;;;;;;3.17;1.67;;;28.30;33.90;;;;;;5070954;28;20205;-60
2021/05/31 08:53:02;;;;;;;1.85;1.50;;;26.80;36.10;;;;;;5070824;28;20247;-60
2021/05/31 08:55:30;;;;;;;2.05;1.50;;;25.40;37.70;;;;;;5070657;28;20229;-60
2021/05/31 08:57:57;;;;;;;2.72;1.60;;;24.40;38.90;;;;;;5070662;28;20228;-61
2021/05/31 09:00:27;;;;;;;4.32;2.15;;;23.20;39.70;;;;;;5070736;28;20208;-60
2021/05/31 09:02:54;;;;;;;2.72;1.67;;;22.10;41.60;;;;;;5070844;28;20239;-60
2021/05/31 09:05:32;;;;;;;1.75;1.60;;;21.60;44.00;;;;;;5070668;28;20240;-60
2021/05/31 09:08:02;;;;;;;2.60;1.77;;;20.90;45.80;;;;;;5070847;28;20205;-60
2021/05/31 09:10:34;;;;;;;3.88;1.92;;;20.20;47.00;;;;;;5070800;28;20205;-60
2021/05/31 09:13:02;;;;;;;2.63;1.80;;;19.90;47.60;;;;;;5070924;28;20237;-60
2021/05/31 09:15:28;;;;;;;3.78;1.85;;;19.90;47.50;;;;;;5070216;28;20223;-61
2021/05/31 09:17:54;;;;;;;2.70;1.90;;;19.80;47.40;;;;;;5070711;28;20289;-60
2021/05/31 09:20:21;;;;;;;2.70;2.00;;;19.80;48.60;;;;;;5074180;28;20208;-60
2021/05/31 09:22:50;;;;;;;4.47;1.85;;;19.80;48.20;;;;;;5074954;28;20205;-60
2021/05/31 09:25:25;;;;;;;4.05;1.73;;;19.70;49.10;;;;;;5074703;28;20229;-61
2021/05/31 09:27:51;;;;;;;2.17;1.60;;;19.50;48.20;;;;;;5074763;28;20269;-60
2021/05/31 09:30:18;;;;;;;4.07;1.70;;;19.40;48.20;;;;;;5074644;28;20205;-62
2021/05/31 09:32:50;;;;;;;3.05;1.70;;;19.40;48.50;;;;;;5074638;28;20676;-61
2021/05/31 09:35:20;;;;;;;2.88;1.65;;;19.40;48.70;;;;;;5073761;28;20217;-61
2021/05/31 09:37:50;;;;;;;1.92;1.50;;;19.40;48.90;;;;;;5074063;28;20304;-59
2021/05/31 09:40:19;;;;;;;1.88;1.60;;;19.40;48.80;;;;;;5073982;28;20205;-59
2021/05/31 09:42:49;;;;;;;2.55;1.60;;;19.40;48.20;;;;;;5074100;28;20314;-59
2021/05/31 09:45:15;;;;;;;2.00;1.50;;;19.50;48.30;;;;;;5073769;28;20229;-60
2021/05/31 09:47:42;;;;;;;2.03;1.40;;;19.60;48.20;;;;;;5074325;28;20259;-60
2021/05/31 09:50:09;;;;;;;3.40;2.35;;;19.70;48.30;;;;;;5074186;28;20205;-60
2021/05/31 09:52:36;;;;;;;1.80;1.70;;;19.70;48.60;;;;;;5073895;28;20209;-60
2021/05/31 09:55:06;;;;;;;2.38;1.70;;;19.80;48.90;;;;;;5073600;28;20600;-60
2021/05/31 09:57:35;;;;;;;3.72;1.70;;;19.70;49.10;;;;;;5073790;28;20216;-60
2021/05/31 10:00:06;;;;;;;3.75;1.45;;;19.70;49.00;;;;;;5073614;28;20201;-61
2021/05/31 10:02:43;;;;;;;2.53;1.58;;;19.80;48.80;;;;;;5073792;28;20213;-60
2021/05/31 10:05:17;;;;;;;2.10;1.90;;;19.90;49.60;;;;;;5073636;28;20700;-61
2021/05/31 10:07:51;;;;;;;1.92;1.73;;;19.80;48.60;;;;;;5073558;28;20323;-61
2021/05/31 10:10:18;;;;;;;2.63;1.90;;;19.80;48.80;;;;;;5073637;28;20223;-60
2021/05/31 10:12:45;;;;;;;3.55;1.55;;;19.80;48.30;;;;;;5073430;28;20212;-60
2021/05/31 10:15:13;;;;;;;3.40;1.70;;;19.90;48.80;;;;;;5073364;28;20644;-60
2021/05/31 10:17:39;;;;;;;2.78;1.70;;;19.90;48.90;;;;;;5073449;28;20212;-60
2021/05/31 10:20:07;;;;;;;1.90;1.60;;;19.90;48.80;;;;;;5072853;28;20223;-60
2021/05/31 10:22:36;;;;;;;2.15;1.50;;;19.90;49.00;;;;;;5073223;28;20201;-60
2021/05/31 10:25:06;;;;;;;4.63;1.75;;;19.90;49.00;;;;;;5072845;28;20595;-62
2021/05/31 10:27:35;;;;;;;2.17;1.80;;;20.00;48.90;;;;;;5073089;28;20204;-60
2021/05/31 10:30:03;;;;;;;1.92;1.42;;;20.00;49.80;;;;;;5072667;28;20217;-59
2021/05/31 10:32:29;;;;;;;2.40;1.70;;;20.00;47.80;;;;;;5073168;28;20235;-61
2021/05/31 10:34:56;;;;;;;2.00;1.60;;;19.90;48.90;;;;;;5072797;28;20216;-60
2021/05/31 10:37:24;;;;;;;2.83;1.70;;;19.90;48.30;;;;;;5072985;28;20259;-60
2021/05/31 10:40:06;;;;;;;5.88;1.70;;;20.00;48.50;;;;;;5072491;28;20208;-61
2021/05/31 10:42:45;;;;;;;2.45;1.65;;;20.10;48.30;;;;;;5072968;28;20230;-59
2021/05/31 10:45:29;;;;;;;2.88;1.95;;;20.00;49.40;;;;;;5072555;28;20608;-58
2021/05/31 10:48:17;;;;;;;2.00;1.80;;;19.90;49.40;;;;;;5073621;28;20216;-60
2021/05/31 10:50:45;;;;;;;1.80;1.65;;;20.00;49.80;;;;;;5070268;28;20221;-60
2021/05/31 10:53:25;;;;;;;1.85;1.60;;;20.20;49.60;;;;;;5073759;28;20668;-60
2021/05/31 10:55:53;;;;;;;1.60;1.50;;;20.40;49.10;;;;;;5073079;28;20296;-60
2021/05/31 10:58:23;;;;;;;2.75;1.85;;;20.50;48.60;;;;;;5074324;28;20208;-60
2021/05/31 11:00:54;;;;;;;2.33;1.70;;;20.50;48.60;;;;;;5075720;28;20965;-60
2021/05/31 11:03:20;;;;;;;2.13;1.52;;;20.50;48.90;;;;;;5074866;28;20205;-60
2021/05/31 11:05:46;;;;;;;2.22;1.50;;;20.50;48.90;;;;;;5074007;28;20249;-60
2021/05/31 11:08:27;;;;;;;2.10;1.77;;;20.60;48.70;;;;;;5072696;28;20201;-59
2021/05/31 11:10:58;;;;;;;2.75;1.67;;;20.70;48.70;;;;;;5072359;28;20212;-61
2021/05/31 11:13:27;;;;;;;5.55;1.80;;;20.70;48.40;;;;;;5072347;28;20205;-61
2021/05/31 11:16:04;;;;;;;2.53;1.85;;;20.70;48.40;;;;;;5072697;28;20205;-59
2021/05/31 11:18:39;;;;;;;3.65;1.70;;;20.90;48.80;;;;;;5072438;28;20204;-60
2021/05/31 11:21:06;;;;;;;3.60;1.70;;;21.10;48.00;;;;;;5072323;28;20216;-60
2021/05/31 11:23:32;;;;;;;3.25;1.75;;;21.30;47.40;;;;;;5072009;28;20211;-60
2021/05/31 11:25:58;;;;;;;5.57;1.70;;;21.30;47.20;;;;;;5072104;28;20228;-59
2021/05/31 11:28:26;;;;;;;2.15;1.80;;;21.30;47.40;;;;;;5072203;28;20201;-60
2021/05/31 11:30:53;;;;;;;2.60;1.90;;;21.30;48.40;;;;;;5072578;28;20209;-60
2021/05/31 11:33:19;;;;;;;2.25;1.67;;;21.40;48.10;;;;;;5072504;28;20304;-61
2021/05/31 11:35:47;;;;;;;2.83;1.75;;;21.40;48.60;;;;;;5072460;28;20221;-60
2021/05/31 11:38:15;;;;;;;4.25;1.90;;;21.50;48.10;;;;;;5071891;28;20213;-59
2021/05/31 11:40:42;;;;;;;2.80;1.67;;;21.60;48.10;;;;;;5071917;28;20216;-60
2021/05/31 11:43:13;;;;;;;1.95;1.67;;;21.60;48.40;;;;;;5071166;28;20201;-60
2021/05/31 11:45:43;;;;;;;3.80;1.85;;;21.70;47.90;;;;;;5085906;22;20263;-57
2021/05/31 11:48:12;;;;;;;3.17;1.70;;;21.80;48.10;;;;;;5071472;28;20695;-57
2021/05/31 11:50:40;;;;;;;2.50;1.65;;;22.00;47.80;;;;;;5071410;28;20209;-57
2021/05/31 11:53:08;;;;;;;4.10;1.70;;;22.00;46.20;;;;;;5071304;28;20656;-57
2021/05/31 11:55:35;;;;;;;2.05;1.70;;;22.00;45.40;;;;;;5071095;28;20225;-57
2021/05/31 11:58:03;;;;;;;1.70;1.60;;;22.10;44.90;;;;;;5071399;28;20207;-57
2021/05/31 12:00:31;;;;;;;1.98;1.77;;;22.10;45.40;;;;;;5071433;28;20228;-57
2021/05/31 12:02:59;;;;;;;1.67;1.40;;;22.20;45.40;;;;;;5071460;28;20204;-57
2021/05/31 12:05:31;;;;;;;2.25;1.58;;;22.20;45.70;;;;;;5070796;28;20228;-57
2021/05/31 12:08:07;;;;;;;7.40;2.30;;;22.20;44.80;;;;;;5071103;28;20638;-57
2021/05/31 12:10:33;;;;;;;2.35;1.65;;;22.10;45.50;;;;;;5071305;28;20215;-57
2021/05/31 12:12:59;;;;;;;3.58;1.70;;;22.20;44.20;;;;;;5071398;28;20235;-57
2021/05/31 12:15:26;;;;;;;2.53;1.60;;;22.30;44.10;;;;;;5070947;28;20228;-57
2021/05/31 12:17:53;;;;;;;2.28;1.50;;;22.40;43.80;;;;;;5071824;28;20211;-57
2021/05/31 12:20:30;;;;;;;1.73;1.60;;;22.60;44.20;;;;;;5071296;28;20626;-57
2021/05/31 12:22:56;;;;;;;5.40;1.90;;;22.60;43.20;;;;;;5071355;28;20706;-57
2021/05/31 12:25:22;;;;;;;2.13;1.70;;;22.50;44.10;;;;;;5070761;28;20232;-57
2021/05/31 12:27:50;;;;;;;2.28;1.60;;;22.50;44.40;;;;;;5071111;28;20262;-57
2021/05/31 12:30:17;;;;;;;2.28;1.60;;;22.70;44.30;;;;;;5071142;28;20232;-56
2021/05/31 12:32:44;;;;;;;2.45;1.52;;;22.80;44.70;;;;;;5070895;28;20678;-56
2021/05/31 12:35:12;;;;;;;2.22;1.80;;;23.00;44.00;;;;;;5070923;28;20221;-57
2021/05/31 12:37:42;;;;;;;2.22;1.73;;;23.20;43.70;;;;;;5071240;28;20223;-57
2021/05/31 12:40:11;;;;;;;2.65;1.70;;;23.20;43.40;;;;;;5052891;28;20201;-56
2021/05/31 12:42:38;;;;;;;4.80;1.77;;;23.00;43.30;;;;;;5070783;28;20217;-58
2021/05/31 12:45:07;;;;;;;2.40;1.77;;;22.80;43.60;;;;;;5070271;28;20229;-57
2021/05/31 12:47:38;;;;;;;2.10;1.60;;;22.60;43.50;;;;;;5070815;28;20205;-57
2021/05/31 12:50:07;;;;;;;2.42;1.60;;;22.50;43.20;;;;;;5070718;28;20208;-57
2021/05/31 12:52:38;;;;;;;2.90;1.80;;;22.40;42.60;;;;;;5071144;28;20200;-57
2021/05/31 12:55:08;;;;;;;2.60;1.70;;;22.40;42.90;;;;;;5074609;28;20239;-57
2021/05/31 12:57:36;;;;;;;4.20;1.55;;;22.60;42.10;;;;;;5074571;28;20211;-57
2021/05/31 13:00:07;;;;;;;2.17;1.55;;;22.60;41.70;;;;;;5074653;28;20591;-57
2021/05/31 13:02:34;;;;;;;3.05;1.42;;;22.70;41.50;;;;;;5074935;28;20269;-57